sensor_id;sensor_type;location;lat;lon;timestamp;P1;durP1;ratioP1;P2;durP2;ratioP2
60026;SDS011;45891;53.006;6.512;2023-07-30T00:02:01;16.75;;;5.05;;
60026;SDS011;45891;53.006;6.512;2023-07-30T00:04:27;15.45;;;4.70;;
60026;SDS011;45891;53.006;6.512;2023-07-30T00:06:53;18.08;;;4.70;;
60026;SDS011;45891;53.006;6.512;2023-07-30T00:09:20;21.05;;;4.93;;
60026;SDS011;45891;53.006;6.512;2023-07-30T00:11:46;15.60;;;4.80;;
60026;SDS011;45891;53.006;6.512;2023-07-30T00:14:12;14.45;;;5.03;;
60026;SDS011;45891;53.006;6.512;2023-07-30T00:16:38;14.90;;;5.18;;
60026;SDS011;45891;53.006;6.512;2023-07-30T00:19:04;17.80;;;5.25;;
60026;SDS011;45891;53.006;6.512;2023-07-30T00:21:30;16.40;;;5.10;;
60026;SDS011;45891;53.006;6.512;2023-07-30T00:23:56;16.38;;;4.40;;
60026;SDS011;45891;53.006;6.512;2023-07-30T00:26:23;19.48;;;5.28;;
60026;SDS011;45891;53.006;6.512;2023-07-30T00:28:51;15.98;;;5.32;;
60026;SDS011;45891;53.006;6.512;2023-07-30T00:31:17;18.45;;;5.38;;
60026;SDS011;45891;53.006;6.512;2023-07-30T00:33:43;19.02;;;5.70;;
60026;SDS011;45891;53.006;6.512;2023-07-30T00:36:10;18.35;;;5.28;;
60026;SDS011;45891;53.006;6.512;2023-07-30T00:38:36;17.38;;;4.75;;
60026;SDS011;45891;53.006;6.512;2023-07-30T00:41:02;21.23;;;4.95;;
60026;SDS011;45891;53.006;6.512;2023-07-30T00:43:28;15.35;;;5.32;;
60026;SDS011;45891;53.006;6.512;2023-07-30T00:45:54;19.35;;;5.20;;
60026;SDS011;45891;53.006;6.512;2023-07-30T00:48:20;15.10;;;5.07;;
60026;SDS011;45891;53.006;6.512;2023-07-30T00:50:47;22.20;;;5.80;;
60026;SDS011;45891;53.006;6.512;2023-07-30T00:53:14;21.08;;;5.70;;
60026;SDS011;45891;53.006;6.512;2023-07-30T00:55:42;17.33;;;5.78;;
60026;SDS011;45891;53.006;6.512;2023-07-30T00:58:08;24.15;;;5.65;;
60026;SDS011;45891;53.006;6.512;2023-07-30T01:00:35;23.65;;;5.65;;
60026;SDS011;45891;53.006;6.512;2023-07-30T01:03:02;21.75;;;5.88;;
60026;SDS011;45891;53.006;6.512;2023-07-30T01:05:28;24.80;;;5.85;;
60026;SDS011;45891;53.006;6.512;2023-07-30T01:07:54;22.30;;;5.57;;
60026;SDS011;45891;53.006;6.512;2023-07-30T01:10:21;21.40;;;5.60;;
60026;SDS011;45891;53.006;6.512;2023-07-30T01:12:48;21.67;;;5.82;;
60026;SDS011;45891;53.006;6.512;2023-07-30T01:15:15;22.40;;;6.03;;
60026;SDS011;45891;53.006;6.512;2023-07-30T01:17:42;22.65;;;6.20;;
60026;SDS011;45891;53.006;6.512;2023-07-30T01:20:09;21.63;;;6.10;;
60026;SDS011;45891;53.006;6.512;2023-07-30T01:22:36;25.10;;;5.80;;
60026;SDS011;45891;53.006;6.512;2023-07-30T01:25:02;26.83;;;6.30;;
60026;SDS011;45891;53.006;6.512;2023-07-30T01:27:29;21.25;;;5.63;;
60026;SDS011;45891;53.006;6.512;2023-07-30T01:30:00;25.50;;;6.20;;
60026;SDS011;45891;53.006;6.512;2023-07-30T01:32:29;20.15;;;5.85;;
60026;SDS011;45891;53.006;6.512;2023-07-30T01:34:57;26.60;;;5.97;;
60026;SDS011;45891;53.006;6.512;2023-07-30T01:37:23;26.63;;;5.90;;
60026;SDS011;45891;53.006;6.512;2023-07-30T01:39:51;24.75;;;6.63;;
60026;SDS011;45891;53.006;6.512;2023-07-30T01:42:17;22.90;;;6.50;;
60026;SDS011;45891;53.006;6.512;2023-07-30T01:44:43;23.90;;;6.50;;
60026;SDS011;45891;53.006;6.512;2023-07-30T01:47:09;23.65;;;6.38;;
60026;SDS011;45891;53.006;6.512;2023-07-30T01:49:36;24.65;;;6.47;;
60026;SDS011;45891;53.006;6.512;2023-07-30T01:52:02;23.60;;;6.10;;
60026;SDS011;45891;53.006;6.512;2023-07-30T01:54:28;23.42;;;6.10;;
60026;SDS011;45891;53.006;6.512;2023-07-30T01:56:54;22.38;;;6.00;;
60026;SDS011;45891;53.006;6.512;2023-07-30T01:59:20;27.33;;;6.32;;
60026;SDS011;45891;53.006;6.512;2023-07-30T02:01:46;25.70;;;6.22;;
60026;SDS011;45891;53.006;6.512;2023-07-30T02:04:12;25.73;;;5.95;;
60026;SDS011;45891;53.006;6.512;2023-07-30T02:06:39;24.43;;;6.00;;
60026;SDS011;45891;53.006;6.512;2023-07-30T02:09:05;25.13;;;6.15;;
60026;SDS011;45891;53.006;6.512;2023-07-30T02:11:31;23.75;;;5.93;;
60026;SDS011;45891;53.006;6.512;2023-07-30T02:13:57;25.35;;;6.43;;
60026;SDS011;45891;53.006;6.512;2023-07-30T02:16:23;25.58;;;5.45;;
60026;SDS011;45891;53.006;6.512;2023-07-30T02:18:49;23.08;;;5.85;;
60026;SDS011;45891;53.006;6.512;2023-07-30T02:21:15;23.40;;;6.10;;
60026;SDS011;45891;53.006;6.512;2023-07-30T02:23:41;26.60;;;5.75;;
60026;SDS011;45891;53.006;6.512;2023-07-30T02:26:07;19.55;;;6.00;;
60026;SDS011;45891;53.006;6.512;2023-07-30T02:28:33;23.17;;;5.80;;
60026;SDS011;45891;53.006;6.512;2023-07-30T02:31:00;27.35;;;5.97;;
60026;SDS011;45891;53.006;6.512;2023-07-30T02:33:26;29.40;;;6.00;;
60026;SDS011;45891;53.006;6.512;2023-07-30T02:35:52;24.83;;;6.13;;
60026;SDS011;45891;53.006;6.512;2023-07-30T02:38:18;19.42;;;5.25;;
60026;SDS011;45891;53.006;6.512;2023-07-30T02:40:44;24.67;;;6.18;;
60026;SDS011;45891;53.006;6.512;2023-07-30T02:43:10;23.60;;;6.45;;
60026;SDS011;45891;53.006;6.512;2023-07-30T02:45:38;23.92;;;5.80;;
60026;SDS011;45891;53.006;6.512;2023-07-30T02:48:04;21.25;;;6.15;;
60026;SDS011;45891;53.006;6.512;2023-07-30T02:50:30;24.33;;;5.85;;
60026;SDS011;45891;53.006;6.512;2023-07-30T02:52:56;19.92;;;6.13;;
60026;SDS011;45891;53.006;6.512;2023-07-30T02:55:22;21.95;;;5.45;;
60026;SDS011;45891;53.006;6.512;2023-07-30T02:57:48;26.15;;;5.53;;
60026;SDS011;45891;53.006;6.512;2023-07-30T03:00:15;29.30;;;6.15;;
60026;SDS011;45891;53.006;6.512;2023-07-30T03:02:41;19.85;;;5.53;;
60026;SDS011;45891;53.006;6.512;2023-07-30T03:05:07;23.27;;;4.88;;
60026;SDS011;45891;53.006;6.512;2023-07-30T03:07:34;24.13;;;5.65;;
60026;SDS011;45891;53.006;6.512;2023-07-30T03:10:01;20.77;;;5.00;;
60026;SDS011;45891;53.006;6.512;2023-07-30T03:12:27;20.17;;;4.93;;
60026;SDS011;45891;53.006;6.512;2023-07-30T03:14:53;20.35;;;5.05;;
60026;SDS011;45891;53.006;6.512;2023-07-30T03:17:20;20.55;;;4.18;;
60026;SDS011;45891;53.006;6.512;2023-07-30T03:19:46;19.13;;;5.03;;
60026;SDS011;45891;53.006;6.512;2023-07-30T03:22:12;19.13;;;4.88;;
60026;SDS011;45891;53.006;6.512;2023-07-30T03:24:38;21.92;;;4.57;;
60026;SDS011;45891;53.006;6.512;2023-07-30T03:27:04;20.67;;;4.70;;
60026;SDS011;45891;53.006;6.512;2023-07-30T03:29:31;21.40;;;4.70;;
60026;SDS011;45891;53.006;6.512;2023-07-30T03:31:57;25.88;;;5.20;;
60026;SDS011;45891;53.006;6.512;2023-07-30T03:34:23;22.23;;;4.60;;
60026;SDS011;45891;53.006;6.512;2023-07-30T03:36:49;16.48;;;4.20;;
60026;SDS011;45891;53.006;6.512;2023-07-30T03:39:15;20.20;;;4.40;;
60026;SDS011;45891;53.006;6.512;2023-07-30T03:41:41;18.00;;;4.43;;
60026;SDS011;45891;53.006;6.512;2023-07-30T03:44:08;24.50;;;5.18;;
60026;SDS011;45891;53.006;6.512;2023-07-30T03:46:34;24.73;;;4.40;;
60026;SDS011;45891;53.006;6.512;2023-07-30T03:49:00;29.77;;;4.85;;
60026;SDS011;45891;53.006;6.512;2023-07-30T03:51:27;18.77;;;4.63;;
60026;SDS011;45891;53.006;6.512;2023-07-30T03:53:53;20.33;;;4.50;;
60026;SDS011;45891;53.006;6.512;2023-07-30T03:56:19;16.90;;;4.43;;
60026;SDS011;45891;53.006;6.512;2023-07-30T03:58:45;21.67;;;4.75;;
60026;SDS011;45891;53.006;6.512;2023-07-30T04:01:11;22.60;;;4.65;;
60026;SDS011;45891;53.006;6.512;2023-07-30T04:03:38;22.90;;;4.30;;
60026;SDS011;45891;53.006;6.512;2023-07-30T04:06:04;17.35;;;4.13;;
60026;SDS011;45891;53.006;6.512;2023-07-30T04:08:30;23.23;;;4.40;;
60026;SDS011;45891;53.006;6.512;2023-07-30T04:10:56;17.40;;;4.25;;
60026;SDS011;45891;53.006;6.512;2023-07-30T04:13:22;19.00;;;4.50;;
60026;SDS011;45891;53.006;6.512;2023-07-30T04:15:48;20.40;;;4.45;;
60026;SDS011;45891;53.006;6.512;2023-07-30T04:18:14;20.98;;;4.35;;
60026;SDS011;45891;53.006;6.512;2023-07-30T04:20:40;18.90;;;4.30;;
60026;SDS011;45891;53.006;6.512;2023-07-30T04:23:06;18.08;;;4.00;;
60026;SDS011;45891;53.006;6.512;2023-07-30T04:25:33;20.77;;;4.60;;
60026;SDS011;45891;53.006;6.512;2023-07-30T04:27:59;19.42;;;4.43;;
60026;SDS011;45891;53.006;6.512;2023-07-30T04:30:25;19.42;;;4.15;;
60026;SDS011;45891;53.006;6.512;2023-07-30T04:32:51;16.25;;;4.20;;
60026;SDS011;45891;53.006;6.512;2023-07-30T04:35:17;16.42;;;4.45;;
60026;SDS011;45891;53.006;6.512;2023-07-30T04:37:43;18.80;;;4.22;;
60026;SDS011;45891;53.006;6.512;2023-07-30T04:40:09;16.52;;;4.20;;
60026;SDS011;45891;53.006;6.512;2023-07-30T04:42:36;17.77;;;4.15;;
60026;SDS011;45891;53.006;6.512;2023-07-30T04:45:02;18.23;;;3.85;;
60026;SDS011;45891;53.006;6.512;2023-07-30T04:47:28;18.25;;;4.15;;
60026;SDS011;45891;53.006;6.512;2023-07-30T04:49:54;18.60;;;4.55;;
60026;SDS011;45891;53.006;6.512;2023-07-30T04:52:20;23.10;;;5.05;;
60026;SDS011;45891;53.006;6.512;2023-07-30T04:54:46;16.63;;;4.47;;
60026;SDS011;45891;53.006;6.512;2023-07-30T04:57:13;21.85;;;4.50;;
60026;SDS011;45891;53.006;6.512;2023-07-30T04:59:39;21.20;;;4.43;;
60026;SDS011;45891;53.006;6.512;2023-07-30T05:02:05;20.63;;;4.43;;
60026;SDS011;45891;53.006;6.512;2023-07-30T05:04:31;19.00;;;4.07;;
60026;SDS011;45891;53.006;6.512;2023-07-30T05:06:57;18.48;;;4.28;;
60026;SDS011;45891;53.006;6.512;2023-07-30T05:09:23;26.75;;;4.60;;
60026;SDS011;45891;53.006;6.512;2023-07-30T05:11:49;22.43;;;4.57;;
60026;SDS011;45891;53.006;6.512;2023-07-30T05:14:15;21.85;;;4.30;;
60026;SDS011;45891;53.006;6.512;2023-07-30T05:16:41;20.67;;;4.32;;
60026;SDS011;45891;53.006;6.512;2023-07-30T05:19:08;19.92;;;4.50;;
60026;SDS011;45891;53.006;6.512;2023-07-30T05:21:34;19.83;;;4.70;;
60026;SDS011;45891;53.006;6.512;2023-07-30T05:24:00;23.42;;;5.05;;
60026;SDS011;45891;53.006;6.512;2023-07-30T05:26:26;23.13;;;4.80;;
60026;SDS011;45891;53.006;6.512;2023-07-30T05:28:52;18.63;;;4.47;;
60026;SDS011;45891;53.006;6.512;2023-07-30T05:31:18;20.55;;;4.70;;
60026;SDS011;45891;53.006;6.512;2023-07-30T05:33:44;19.83;;;4.18;;
60026;SDS011;45891;53.006;6.512;2023-07-30T05:36:10;18.83;;;5.10;;
60026;SDS011;45891;53.006;6.512;2023-07-30T05:38:36;17.48;;;4.18;;
60026;SDS011;45891;53.006;6.512;2023-07-30T05:41:02;20.63;;;4.40;;
60026;SDS011;45891;53.006;6.512;2023-07-30T05:43:28;17.55;;;4.50;;
60026;SDS011;45891;53.006;6.512;2023-07-30T05:45:55;21.70;;;4.43;;
60026;SDS011;45891;53.006;6.512;2023-07-30T05:48:21;21.30;;;5.20;;
60026;SDS011;45891;53.006;6.512;2023-07-30T05:50:47;18.63;;;4.45;;
60026;SDS011;45891;53.006;6.512;2023-07-30T05:53:13;17.85;;;4.10;;
60026;SDS011;45891;53.006;6.512;2023-07-30T05:55:39;18.50;;;4.85;;
60026;SDS011;45891;53.006;6.512;2023-07-30T05:58:05;17.90;;;4.35;;
60026;SDS011;45891;53.006;6.512;2023-07-30T06:00:31;21.23;;;4.60;;
60026;SDS011;45891;53.006;6.512;2023-07-30T06:02:57;22.25;;;4.43;;
60026;SDS011;45891;53.006;6.512;2023-07-30T06:05:23;20.02;;;4.55;;
60026;SDS011;45891;53.006;6.512;2023-07-30T06:07:49;21.83;;;4.75;;
60026;SDS011;45891;53.006;6.512;2023-07-30T06:10:15;20.75;;;4.80;;
60026;SDS011;45891;53.006;6.512;2023-07-30T06:12:42;23.77;;;4.82;;
60026;SDS011;45891;53.006;6.512;2023-07-30T06:15:08;21.50;;;4.95;;
60026;SDS011;45891;53.006;6.512;2023-07-30T06:17:34;20.08;;;4.53;;
60026;SDS011;45891;53.006;6.512;2023-07-30T06:20:00;21.65;;;4.80;;
60026;SDS011;45891;53.006;6.512;2023-07-30T06:22:27;22.40;;;4.97;;
60026;SDS011;45891;53.006;6.512;2023-07-30T06:24:53;26.42;;;5.22;;
60026;SDS011;45891;53.006;6.512;2023-07-30T06:27:19;22.70;;;5.13;;
60026;SDS011;45891;53.006;6.512;2023-07-30T06:29:46;18.90;;;4.70;;
60026;SDS011;45891;53.006;6.512;2023-07-30T06:32:12;21.40;;;5.13;;
60026;SDS011;45891;53.006;6.512;2023-07-30T06:34:38;21.58;;;5.15;;
60026;SDS011;45891;53.006;6.512;2023-07-30T06:37:04;23.88;;;4.85;;
60026;SDS011;45891;53.006;6.512;2023-07-30T06:39:31;20.75;;;4.57;;
60026;SDS011;45891;53.006;6.512;2023-07-30T06:41:57;22.85;;;4.85;;
60026;SDS011;45891;53.006;6.512;2023-07-30T06:44:23;21.40;;;4.82;;
60026;SDS011;45891;53.006;6.512;2023-07-30T06:46:50;18.63;;;4.47;;
60026;SDS011;45891;53.006;6.512;2023-07-30T06:49:17;20.08;;;4.47;;
60026;SDS011;45891;53.006;6.512;2023-07-30T06:51:43;20.98;;;4.72;;
60026;SDS011;45891;53.006;6.512;2023-07-30T06:54:09;20.27;;;4.57;;
60026;SDS011;45891;53.006;6.512;2023-07-30T06:56:35;21.63;;;4.47;;
60026;SDS011;45891;53.006;6.512;2023-07-30T06:59:01;18.85;;;4.10;;
60026;SDS011;45891;53.006;6.512;2023-07-30T07:01:28;26.17;;;5.47;;
60026;SDS011;45891;53.006;6.512;2023-07-30T07:03:55;20.98;;;4.30;;
60026;SDS011;45891;53.006;6.512;2023-07-30T07:06:21;22.02;;;4.60;;
60026;SDS011;45891;53.006;6.512;2023-07-30T07:08:47;21.02;;;4.22;;
60026;SDS011;45891;53.006;6.512;2023-07-30T07:11:13;18.73;;;4.35;;
60026;SDS011;45891;53.006;6.512;2023-07-30T07:13:39;20.77;;;4.25;;
60026;SDS011;45891;53.006;6.512;2023-07-30T07:16:05;18.45;;;4.32;;
60026;SDS011;45891;53.006;6.512;2023-07-30T07:18:31;19.00;;;4.38;;
60026;SDS011;45891;53.006;6.512;2023-07-30T07:20:57;20.27;;;3.92;;
60026;SDS011;45891;53.006;6.512;2023-07-30T07:23:23;24.52;;;4.15;;
60026;SDS011;45891;53.006;6.512;2023-07-30T07:25:50;21.70;;;3.70;;
60026;SDS011;45891;53.006;6.512;2023-07-30T07:28:17;15.70;;;3.50;;
60026;SDS011;45891;53.006;6.512;2023-07-30T07:30:44;21.30;;;3.85;;
60026;SDS011;45891;53.006;6.512;2023-07-30T07:33:10;17.27;;;3.50;;
60026;SDS011;45891;53.006;6.512;2023-07-30T07:35:38;17.90;;;3.63;;
60026;SDS011;45891;53.006;6.512;2023-07-30T07:38:05;19.45;;;3.60;;
60026;SDS011;45891;53.006;6.512;2023-07-30T07:40:38;17.95;;;3.05;;
60026;SDS011;45891;53.006;6.512;2023-07-30T07:43:08;16.33;;;3.65;;
60026;SDS011;45891;53.006;6.512;2023-07-30T07:45:34;13.57;;;2.47;;
60026;SDS011;45891;53.006;6.512;2023-07-30T07:48:00;16.48;;;3.03;;
60026;SDS011;45891;53.006;6.512;2023-07-30T07:50:26;19.05;;;3.15;;
60026;SDS011;45891;53.006;6.512;2023-07-30T07:52:52;15.80;;;2.58;;
60026;SDS011;45891;53.006;6.512;2023-07-30T07:55:19;16.58;;;2.75;;
60026;SDS011;45891;53.006;6.512;2023-07-30T07:57:45;16.73;;;3.25;;
60026;SDS011;45891;53.006;6.512;2023-07-30T08:00:11;16.60;;;3.17;;
60026;SDS011;45891;53.006;6.512;2023-07-30T08:02:37;16.17;;;2.90;;
60026;SDS011;45891;53.006;6.512;2023-07-30T08:05:03;14.77;;;2.70;;
60026;SDS011;45891;53.006;6.512;2023-07-30T08:07:29;15.80;;;3.17;;
60026;SDS011;45891;53.006;6.512;2023-07-30T08:09:55;17.33;;;3.05;;
60026;SDS011;45891;53.006;6.512;2023-07-30T08:12:21;24.33;;;3.45;;
60026;SDS011;45891;53.006;6.512;2023-07-30T08:14:48;24.95;;;4.45;;
60026;SDS011;45891;53.006;6.512;2023-07-30T08:17:14;20.25;;;3.42;;
60026;SDS011;45891;53.006;6.512;2023-07-30T08:19:40;19.02;;;3.47;;
60026;SDS011;45891;53.006;6.512;2023-07-30T08:22:06;24.73;;;3.53;;
60026;SDS011;45891;53.006;6.512;2023-07-30T08:24:32;14.38;;;2.90;;
60026;SDS011;45891;53.006;6.512;2023-07-30T08:26:58;16.77;;;2.60;;
60026;SDS011;45891;53.006;6.512;2023-07-30T08:29:24;17.65;;;2.92;;
60026;SDS011;45891;53.006;6.512;2023-07-30T08:31:51;18.08;;;3.03;;
60026;SDS011;45891;53.006;6.512;2023-07-30T08:34:17;16.50;;;2.83;;
60026;SDS011;45891;53.006;6.512;2023-07-30T08:36:43;16.15;;;2.90;;
60026;SDS011;45891;53.006;6.512;2023-07-30T08:39:10;16.15;;;2.92;;
60026;SDS011;45891;53.006;6.512;2023-07-30T08:41:36;16.95;;;2.95;;
60026;SDS011;45891;53.006;6.512;2023-07-30T08:44:02;16.25;;;2.75;;
60026;SDS011;45891;53.006;6.512;2023-07-30T08:46:28;20.67;;;3.45;;
60026;SDS011;45891;53.006;6.512;2023-07-30T08:48:54;18.58;;;3.17;;
60026;SDS011;45891;53.006;6.512;2023-07-30T08:51:22;19.27;;;2.85;;
60026;SDS011;45891;53.006;6.512;2023-07-30T08:53:50;15.43;;;2.90;;
60026;SDS011;45891;53.006;6.512;2023-07-30T08:56:17;19.40;;;3.50;;
60026;SDS011;45891;53.006;6.512;2023-07-30T08:58:44;16.52;;;3.45;;
60026;SDS011;45891;53.006;6.512;2023-07-30T09:01:12;19.40;;;3.25;;
60026;SDS011;45891;53.006;6.512;2023-07-30T09:03:40;15.77;;;3.05;;
60026;SDS011;45891;53.006;6.512;2023-07-30T09:06:07;23.60;;;3.70;;
60026;SDS011;45891;53.006;6.512;2023-07-30T09:08:33;17.05;;;3.22;;
60026;SDS011;45891;53.006;6.512;2023-07-30T09:11:08;21.20;;;3.50;;
60026;SDS011;45891;53.006;6.512;2023-07-30T09:13:39;16.92;;;3.40;;
60026;SDS011;45891;53.006;6.512;2023-07-30T09:16:10;20.13;;;3.53;;
60026;SDS011;45891;53.006;6.512;2023-07-30T09:18:55;16.97;;;3.50;;
60026;SDS011;45891;53.006;6.512;2023-07-30T09:21:33;18.58;;;3.50;;
60026;SDS011;45891;53.006;6.512;2023-07-30T09:24:02;16.13;;;3.00;;
60026;SDS011;45891;53.006;6.512;2023-07-30T09:26:44;15.13;;;2.65;;
60026;SDS011;45891;53.006;6.512;2023-07-30T09:29:11;14.95;;;2.63;;
60026;SDS011;45891;53.006;6.512;2023-07-30T09:31:47;15.38;;;2.55;;
60026;SDS011;45891;53.006;6.512;2023-07-30T09:34:17;12.73;;;2.63;;
60026;SDS011;45891;53.006;6.512;2023-07-30T09:36:46;12.50;;;2.28;;
60026;SDS011;45891;53.006;6.512;2023-07-30T09:39:23;14.82;;;2.38;;
60026;SDS011;45891;53.006;6.512;2023-07-30T09:41:50;11.23;;;2.17;;
60026;SDS011;45891;53.006;6.512;2023-07-30T09:44:18;11.02;;;2.10;;
60026;SDS011;45891;53.006;6.512;2023-07-30T09:46:46;10.27;;;1.83;;
60026;SDS011;45891;53.006;6.512;2023-07-30T09:49:14;9.48;;;1.90;;
60026;SDS011;45891;53.006;6.512;2023-07-30T09:51:41;11.27;;;2.35;;
60026;SDS011;45891;53.006;6.512;2023-07-30T09:54:08;10.73;;;1.88;;
60026;SDS011;45891;53.006;6.512;2023-07-30T09:56:37;8.40;;;1.85;;
60026;SDS011;45891;53.006;6.512;2023-07-30T09:59:08;8.10;;;1.67;;
60026;SDS011;45891;53.006;6.512;2023-07-30T10:01:36;7.90;;;1.63;;
60026;SDS011;45891;53.006;6.512;2023-07-30T10:04:07;8.88;;;1.75;;
60026;SDS011;45891;53.006;6.512;2023-07-30T10:06:36;10.48;;;1.80;;
60026;SDS011;45891;53.006;6.512;2023-07-30T10:09:06;10.57;;;2.03;;
60026;SDS011;45891;53.006;6.512;2023-07-30T10:11:34;9.25;;;1.90;;
60026;SDS011;45891;53.006;6.512;2023-07-30T10:14:01;11.70;;;2.30;;
60026;SDS011;45891;53.006;6.512;2023-07-30T10:16:28;9.02;;;2.10;;
60026;SDS011;45891;53.006;6.512;2023-07-30T10:18:55;10.23;;;1.90;;
60026;SDS011;45891;53.006;6.512;2023-07-30T10:21:24;12.25;;;2.10;;
60026;SDS011;45891;53.006;6.512;2023-07-30T10:24:04;9.63;;;1.90;;
60026;SDS011;45891;53.006;6.512;2023-07-30T10:26:31;10.77;;;2.40;;
60026;SDS011;45891;53.006;6.512;2023-07-30T10:29:12;13.18;;;2.10;;
60026;SDS011;45891;53.006;6.512;2023-07-30T10:31:43;12.67;;;2.20;;
60026;SDS011;45891;53.006;6.512;2023-07-30T10:34:26;11.10;;;2.00;;
60026;SDS011;45891;53.006;6.512;2023-07-30T10:37:08;11.30;;;2.50;;
60026;SDS011;45891;53.006;6.512;2023-07-30T10:39:34;13.45;;;2.40;;
60026;SDS011;45891;53.006;6.512;2023-07-30T10:42:00;10.52;;;2.00;;
60026;SDS011;45891;53.006;6.512;2023-07-30T10:46:53;9.98;;;1.90;;
60026;SDS011;45891;53.006;6.512;2023-07-30T10:49:20;11.55;;;2.25;;
60026;SDS011;45891;53.006;6.512;2023-07-30T10:51:47;13.70;;;2.20;;
60026;SDS011;45891;53.006;6.512;2023-07-30T10:54:13;11.00;;;1.80;;
60026;SDS011;45891;53.006;6.512;2023-07-30T10:56:41;12.73;;;2.33;;
60026;SDS011;45891;53.006;6.512;2023-07-30T10:59:09;9.10;;;1.77;;
60026;SDS011;45891;53.006;6.512;2023-07-30T11:01:42;16.83;;;2.33;;
60026;SDS011;45891;53.006;6.512;2023-07-30T11:04:14;12.60;;;2.38;;
60026;SDS011;45891;53.006;6.512;2023-07-30T11:06:45;10.57;;;2.03;;
60026;SDS011;45891;53.006;6.512;2023-07-30T11:09:19;11.73;;;1.80;;
60026;SDS011;45891;53.006;6.512;2023-07-30T11:11:53;11.32;;;2.10;;
60026;SDS011;45891;53.006;6.512;2023-07-30T11:14:21;10.15;;;1.90;;
60026;SDS011;45891;53.006;6.512;2023-07-30T11:16:52;13.13;;;2.28;;
60026;SDS011;45891;53.006;6.512;2023-07-30T11:19:19;14.10;;;1.95;;
60026;SDS011;45891;53.006;6.512;2023-07-30T11:21:46;13.88;;;2.25;;
60026;SDS011;45891;53.006;6.512;2023-07-30T11:24:14;15.27;;;2.08;;
60026;SDS011;45891;53.006;6.512;2023-07-30T11:26:40;12.63;;;2.00;;
60026;SDS011;45891;53.006;6.512;2023-07-30T11:29:17;13.70;;;2.33;;
60026;SDS011;45891;53.006;6.512;2023-07-30T11:31:45;13.73;;;2.13;;
60026;SDS011;45891;53.006;6.512;2023-07-30T11:34:13;12.70;;;1.88;;
60026;SDS011;45891;53.006;6.512;2023-07-30T11:36:42;9.60;;;1.83;;
60026;SDS011;45891;53.006;6.512;2023-07-30T11:39:09;10.10;;;1.77;;
60026;SDS011;45891;53.006;6.512;2023-07-30T11:41:36;12.23;;;1.70;;
60026;SDS011;45891;53.006;6.512;2023-07-30T11:44:03;11.55;;;2.00;;
60026;SDS011;45891;53.006;6.512;2023-07-30T11:46:29;10.95;;;1.70;;
60026;SDS011;45891;53.006;6.512;2023-07-30T11:49:11;13.05;;;2.00;;
60026;SDS011;45891;53.006;6.512;2023-07-30T11:51:40;13.70;;;1.98;;
60026;SDS011;45891;53.006;6.512;2023-07-30T11:54:07;10.40;;;1.88;;
60026;SDS011;45891;53.006;6.512;2023-07-30T11:56:43;9.90;;;2.00;;
60026;SDS011;45891;53.006;6.512;2023-07-30T11:59:09;12.77;;;2.00;;
60026;SDS011;45891;53.006;6.512;2023-07-30T12:01:36;10.57;;;1.70;;
60026;SDS011;45891;53.006;6.512;2023-07-30T12:04:03;11.52;;;1.80;;
60026;SDS011;45891;53.006;6.512;2023-07-30T12:09:13;12.88;;;2.40;;
60026;SDS011;45891;53.006;6.512;2023-07-30T12:11:52;10.13;;;1.75;;
60026;SDS011;45891;53.006;6.512;2023-07-30T12:14:21;9.88;;;2.08;;
60026;SDS011;45891;53.006;6.512;2023-07-30T12:16:51;11.93;;;2.03;;
60026;SDS011;45891;53.006;6.512;2023-07-30T12:19:17;13.07;;;2.00;;
60026;SDS011;45891;53.006;6.512;2023-07-30T12:21:43;12.05;;;1.80;;
60026;SDS011;45891;53.006;6.512;2023-07-30T12:24:09;12.82;;;1.90;;
60026;SDS011;45891;53.006;6.512;2023-07-30T12:26:35;11.50;;;1.73;;
60026;SDS011;45891;53.006;6.512;2023-07-30T12:29:01;14.02;;;2.08;;
60026;SDS011;45891;53.006;6.512;2023-07-30T12:31:27;9.35;;;1.75;;
60026;SDS011;45891;53.006;6.512;2023-07-30T12:33:54;8.98;;;1.52;;
60026;SDS011;45891;53.006;6.512;2023-07-30T12:36:20;6.90;;;1.10;;
60026;SDS011;45891;53.006;6.512;2023-07-30T12:38:46;8.23;;;1.52;;
60026;SDS011;45891;53.006;6.512;2023-07-30T12:41:12;8.00;;;1.20;;
60026;SDS011;45891;53.006;6.512;2023-07-30T12:43:39;7.82;;;1.30;;
60026;SDS011;45891;53.006;6.512;2023-07-30T12:46:05;9.90;;;1.65;;
60026;SDS011;45891;53.006;6.512;2023-07-30T12:48:31;9.25;;;1.50;;
60026;SDS011;45891;53.006;6.512;2023-07-30T12:50:57;11.45;;;1.90;;
60026;SDS011;45891;53.006;6.512;2023-07-30T12:53:23;9.45;;;1.55;;
60026;SDS011;45891;53.006;6.512;2023-07-30T12:55:49;10.13;;;1.88;;
60026;SDS011;45891;53.006;6.512;2023-07-30T12:58:16;12.98;;;2.10;;
60026;SDS011;45891;53.006;6.512;2023-07-30T13:00:43;11.90;;;1.92;;
60026;SDS011;45891;53.006;6.512;2023-07-30T13:03:09;13.90;;;2.30;;
60026;SDS011;45891;53.006;6.512;2023-07-30T13:05:35;13.35;;;2.17;;
60026;SDS011;45891;53.006;6.512;2023-07-30T13:08:01;11.05;;;1.77;;
60026;SDS011;45891;53.006;6.512;2023-07-30T13:10:27;12.93;;;2.20;;
60026;SDS011;45891;53.006;6.512;2023-07-30T13:12:53;15.63;;;2.40;;
60026;SDS011;45891;53.006;6.512;2023-07-30T13:15:20;14.98;;;1.98;;
60026;SDS011;45891;53.006;6.512;2023-07-30T13:17:46;12.85;;;2.17;;
60026;SDS011;45891;53.006;6.512;2023-07-30T13:20:12;15.77;;;2.22;;
60026;SDS011;45891;53.006;6.512;2023-07-30T13:22:38;14.27;;;2.10;;
60026;SDS011;45891;53.006;6.512;2023-07-30T13:25:04;11.55;;;2.20;;
60026;SDS011;45891;53.006;6.512;2023-07-30T13:27:30;16.27;;;2.00;;
60026;SDS011;45891;53.006;6.512;2023-07-30T13:29:57;14.00;;;2.03;;
60026;SDS011;45891;53.006;6.512;2023-07-30T13:32:23;10.20;;;2.03;;
60026;SDS011;45891;53.006;6.512;2023-07-30T13:34:49;12.15;;;1.85;;
60026;SDS011;45891;53.006;6.512;2023-07-30T13:37:15;11.38;;;2.00;;
60026;SDS011;45891;53.006;6.512;2023-07-30T13:39:41;13.15;;;2.00;;
60026;SDS011;45891;53.006;6.512;2023-07-30T13:42:07;11.68;;;1.80;;
60026;SDS011;45891;53.006;6.512;2023-07-30T13:44:33;8.55;;;1.80;;
60026;SDS011;45891;53.006;6.512;2023-07-30T13:46:59;9.60;;;1.80;;
60026;SDS011;45891;53.006;6.512;2023-07-30T13:49:26;11.85;;;1.90;;
60026;SDS011;45891;53.006;6.512;2023-07-30T13:51:52;10.30;;;1.75;;
60026;SDS011;45891;53.006;6.512;2023-07-30T13:54:18;10.27;;;1.70;;
60026;SDS011;45891;53.006;6.512;2023-07-30T13:56:44;10.40;;;1.98;;
60026;SDS011;45891;53.006;6.512;2023-07-30T13:59:10;8.68;;;1.50;;
60026;SDS011;45891;53.006;6.512;2023-07-30T14:01:36;13.45;;;1.70;;
60026;SDS011;45891;53.006;6.512;2023-07-30T14:04:02;11.85;;;1.77;;
60026;SDS011;45891;53.006;6.512;2023-07-30T14:06:28;8.98;;;1.50;;
60026;SDS011;45891;53.006;6.512;2023-07-30T14:08:56;10.23;;;1.67;;
60026;SDS011;45891;53.006;6.512;2023-07-30T14:11:25;10.65;;;1.83;;
60026;SDS011;45891;53.006;6.512;2023-07-30T14:13:53;11.10;;;1.77;;
60026;SDS011;45891;53.006;6.512;2023-07-30T14:16:19;11.68;;;1.63;;
60026;SDS011;45891;53.006;6.512;2023-07-30T14:18:45;12.77;;;1.85;;
60026;SDS011;45891;53.006;6.512;2023-07-30T14:21:11;9.20;;;1.55;;
60026;SDS011;45891;53.006;6.512;2023-07-30T14:23:38;9.80;;;1.40;;
60026;SDS011;45891;53.006;6.512;2023-07-30T14:26:04;9.18;;;1.30;;
60026;SDS011;45891;53.006;6.512;2023-07-30T14:28:30;9.70;;;1.42;;
60026;SDS011;45891;53.006;6.512;2023-07-30T14:30:56;10.90;;;1.70;;
60026;SDS011;45891;53.006;6.512;2023-07-30T14:33:23;11.13;;;1.73;;
60026;SDS011;45891;53.006;6.512;2023-07-30T14:35:50;8.98;;;1.60;;
60026;SDS011;45891;53.006;6.512;2023-07-30T14:38:16;9.02;;;1.55;;
60026;SDS011;45891;53.006;6.512;2023-07-30T14:40:42;11.85;;;1.90;;